createdAt,value
2022-08-04T00:01:51.984Z,22.95
2022-08-04T00:04:32.307Z,22.86
2022-08-04T00:07:44.096Z,22.80
2022-08-04T00:10:18.122Z,22.72
2022-08-04T00:12:51.820Z,22.66
2022-08-04T00:15:20.233Z,22.95
2022-08-04T00:18:01.414Z,24.31
2022-08-04T00:20:32.406Z,25.30
2022-08-04T00:23:02.221Z,24.85
2022-08-04T00:25:30.216Z,24.33
2022-08-04T00:28:00.962Z,23.99
2022-08-04T00:30:28.756Z,23.74
2022-08-04T00:32:58.644Z,23.56
2022-08-04T00:35:28.874Z,23.41
2022-08-04T00:37:57.341Z,23.27
2022-08-04T00:40:43.771Z,23.14
2022-08-04T00:43:53.415Z,23.00
2022-08-04T00:47:08.555Z,22.87
2022-08-04T00:50:09.602Z,22.73
2022-08-04T00:52:46.559Z,22.61
2022-08-04T00:55:35.195Z,22.51
2022-08-04T00:58:23.366Z,22.87
2022-08-04T01:01:03.404Z,24.37
2022-08-04T01:03:50.130Z,25.24
2022-08-04T01:07:12.578Z,24.65
2022-08-04T01:10:05.361Z,23.94
2022-08-04T01:13:07.762Z,23.58
2022-08-04T01:15:59.990Z,23.29
2022-08-04T01:19:02.199Z,23.08
2022-08-04T01:21:29.974Z,22.88
2022-08-04T01:24:30.980Z,22.74
2022-08-04T01:27:27.023Z,22.57
2022-08-04T01:29:59.886Z,22.42
2022-08-04T01:32:39.637Z,22.30
2022-08-04T01:35:47.528Z,22.58
2022-08-04T01:38:30.520Z,24.24
2022-08-04T01:41:04.106Z,25.03
2022-08-04T01:43:35.908Z,24.43
2022-08-04T01:46:05.749Z,23.86
2022-08-04T01:48:35.935Z,23.47
2022-08-04T01:51:08.132Z,23.18
2022-08-04T01:53:42.110Z,22.96
2022-08-04T01:56:12.093Z,22.76
2022-08-04T01:58:41.772Z,22.59
2022-08-04T02:01:13.866Z,22.43
2022-08-04T02:04:21.272Z,22.28
2022-08-04T02:06:59.523Z,22.12
2022-08-04T02:09:54.144Z,21.98
2022-08-04T02:12:40.879Z,22.36
2022-08-04T02:15:36.268Z,23.87
2022-08-04T02:18:10.864Z,24.67
2022-08-04T02:20:44.396Z,24.05
2022-08-04T02:23:44.833Z,23.48
2022-08-04T02:26:22.336Z,23.03
2022-08-04T02:29:32.099Z,22.75
2022-08-04T02:32:06.961Z,22.49
2022-08-04T02:35:17.511Z,22.31
2022-08-04T02:38:08.634Z,22.10
2022-08-04T02:40:36.696Z,21.94
2022-08-04T02:43:05.908Z,22.05
2022-08-04T02:45:38.061Z,23.13
2022-08-04T02:48:30.058Z,23.88
2022-08-04T02:50:58.947Z,23.41
2022-08-04T02:53:27.276Z,22.92
2022-08-04T02:55:56.619Z,22.57
2022-08-04T02:58:26.244Z,22.30
2022-08-04T03:00:54.154Z,22.09
2022-08-04T03:04:08.755Z,21.90
2022-08-04T03:07:20.648Z,21.71
2022-08-04T03:10:04.014Z,22.17
2022-08-04T03:12:59.019Z,23.62
2022-08-04T03:15:44.834Z,24.45
2022-08-04T03:18:37.382Z,23.76
2022-08-04T03:21:26.934Z,23.10
2022-08-04T03:24:38.514Z,22.67
2022-08-04T03:27:15.767Z,22.32
2022-08-04T03:30:01.934Z,22.10
2022-08-04T03:33:13.334Z,21.89
2022-08-04T03:36:28.587Z,21.68
2022-08-04T03:39:18.726Z,21.47
2022-08-04T03:42:12.126Z,21.83
2022-08-04T03:45:23.973Z,23.48
2022-08-04T03:48:30.035Z,24.19
2022-08-04T03:51:36.096Z,23.39
2022-08-04T03:54:40.359Z,22.76
2022-08-04T03:57:55.185Z,22.36
2022-08-04T04:00:40.972Z,22.04
2022-08-04T04:04:02.555Z,21.83
2022-08-04T04:07:05.138Z,21.63
2022-08-04T04:10:06.351Z,21.50
2022-08-04T04:12:59.727Z,21.97
2022-08-04T04:15:36.540Z,23.53
2022-08-04T04:18:16.670Z,24.26
2022-08-04T04:21:13.020Z,23.77
2022-08-04T04:24:02.001Z,23.26
2022-08-04T04:27:18.184Z,22.99
2022-08-04T04:30:00.826Z,22.83
2022-08-04T04:32:50.781Z,22.76
2022-08-04T04:36:05.694Z,22.73
2022-08-04T04:38:48.506Z,22.73
2022-08-04T04:41:42.375Z,22.75
2022-08-04T04:45:00.344Z,22.78
2022-08-04T04:48:10.829Z,22.82
2022-08-04T04:51:12.543Z,22.87
2022-08-04T04:54:07.972Z,22.91
2022-08-04T04:56:41.468Z,22.94
2022-08-04T04:59:15.708Z,22.94
2022-08-04T05:02:23.857Z,22.92
2022-08-04T05:05:30.432Z,22.88
2022-08-04T05:08:51.225Z,22.86
2022-08-04T05:11:43.768Z,22.85
2022-08-04T05:14:37.035Z,22.84
2022-08-04T05:17:35.881Z,22.84
2022-08-04T05:20:15.204Z,22.85
2022-08-04T05:23:01.167Z,22.86
2022-08-04T05:25:50.074Z,22.87
2022-08-04T05:29:07.468Z,22.89
2022-08-04T05:31:41.495Z,22.92
2022-08-04T05:34:23.285Z,22.96
2022-08-04T05:36:56.448Z,23.02
2022-08-04T05:39:36.136Z,23.08
2022-08-04T05:42:07.347Z,23.15
2022-08-04T05:44:36.206Z,23.22
2022-08-04T05:47:05.257Z,23.30
2022-08-04T05:49:34.174Z,23.40
2022-08-04T05:52:04.160Z,23.49
2022-08-04T05:54:34.457Z,23.59
2022-08-04T05:57:05.537Z,23.70
2022-08-04T05:59:38.843Z,23.82
2022-08-04T06:02:08.543Z,23.93
2022-08-04T06:04:40.950Z,24.04
2022-08-04T06:07:11.378Z,24.16
2022-08-04T06:09:39.196Z,24.30
2022-08-04T06:12:11.707Z,24.42
2022-08-04T06:14:44.820Z,24.56
2022-08-04T06:18:35.586Z,24.71
2022-08-04T06:20:19.460Z,24.88
2022-08-04T06:22:59.247Z,25.05
2022-08-04T06:25:34.571Z,25.21
2022-08-04T06:28:05.998Z,25.42
2022-08-04T06:30:34.949Z,25.69
2022-08-04T06:33:13.613Z,26.00
2022-08-04T06:35:41.843Z,26.35
2022-08-04T06:38:09.987Z,26.63
2022-08-04T06:40:41.016Z,26.87
2022-08-04T06:43:09.137Z,27.09
2022-08-04T06:45:40.207Z,27.28
2022-08-04T06:48:09.254Z,27.46
2022-08-04T06:51:32.231Z,27.62
2022-08-04T06:53:28.472Z,27.80
2022-08-04T06:55:58.080Z,27.97
2022-08-04T06:58:26.278Z,28.15
2022-08-04T07:00:55.104Z,28.35
2022-08-04T07:03:23.064Z,28.60
2022-08-04T07:05:52.019Z,28.89
2022-08-04T07:08:21.478Z,29.25
2022-08-04T07:10:49.980Z,29.61
2022-08-04T07:13:18.644Z,29.93
2022-08-04T07:15:48.235Z,30.27
2022-08-04T07:18:16.400Z,30.66
2022-08-04T07:20:46.550Z,31.07
2022-08-04T07:23:18.037Z,31.46
2022-08-04T07:26:12.051Z,31.85
2022-08-04T07:28:42.077Z,32.26
2022-08-04T07:31:31.795Z,32.59
2022-08-04T07:34:16.512Z,32.97
2022-08-04T07:36:56.100Z,33.30
2022-08-04T07:39:29.548Z,33.59
2022-08-04T07:42:02.274Z,33.84
2022-08-04T07:44:35.220Z,34.07
2022-08-04T07:47:07.311Z,34.35
2022-08-04T07:49:55.525Z,34.59
2022-08-04T07:52:29.102Z,34.85
2022-08-04T07:54:57.071Z,35.05
2022-08-04T07:57:40.424Z,35.20
2022-08-04T08:00:14.355Z,35.41
2022-08-04T08:03:01.588Z,35.63
2022-08-04T08:05:30.219Z,35.82
2022-08-04T08:07:58.692Z,35.96
2022-08-04T08:10:26.523Z,36.08
2022-08-04T08:12:54.588Z,36.18
2022-08-04T08:15:22.886Z,36.29
2022-08-04T08:17:58.902Z,36.42
2022-08-04T08:20:31.327Z,36.57
2022-08-04T08:23:01.422Z,36.71
2022-08-04T08:25:33.748Z,36.85
2022-08-04T08:28:04.510Z,36.90
2022-08-04T08:30:34.152Z,36.91
2022-08-04T08:33:07.114Z,36.95
2022-08-04T08:35:56.318Z,36.96
2022-08-04T08:38:50.171Z,37.03
2022-08-04T08:42:02.994Z,37.17
2022-08-04T08:45:21.159Z,37.34
2022-08-04T08:48:16.662Z,37.45
2022-08-04T08:51:24.884Z,37.39
2022-08-04T08:54:05.717Z,37.31
2022-08-04T08:56:45.408Z,37.22
2022-08-04T08:59:27.011Z,37.19
2022-08-04T09:02:16.862Z,37.17
2022-08-04T09:05:23.321Z,37.14
2022-08-04T09:08:10.533Z,37.28
2022-08-04T09:10:49.180Z,37.41
2022-08-04T09:13:24.667Z,37.44
2022-08-04T09:16:14.487Z,37.52
2022-08-04T09:18:56.082Z,37.54
2022-08-04T09:21:39.059Z,37.58
2022-08-04T09:24:36.106Z,37.55
2022-08-04T09:27:23.306Z,37.57
2022-08-04T09:30:08.845Z,37.60
2022-08-04T09:32:41.370Z,37.58
2022-08-04T09:35:30.392Z,37.60
2022-08-04T09:38:04.187Z,37.65
2022-08-04T09:40:55.408Z,37.66
2022-08-04T09:43:59.022Z,37.67
2022-08-04T09:46:52.275Z,37.70
2022-08-04T09:49:30.097Z,37.79
2022-08-04T09:52:22.180Z,37.90
2022-08-04T09:55:05.945Z,37.99
2022-08-04T09:57:50.499Z,38.05
2022-08-04T10:00:20.919Z,38.09
2022-08-04T10:03:13.670Z,38.14
2022-08-04T10:06:16.819Z,38.20
2022-08-04T10:09:19.276Z,38.19
2022-08-04T10:12:27.904Z,38.18
2022-08-04T10:15:20.308Z,38.17
2022-08-04T10:17:57.322Z,38.03
2022-08-04T10:20:56.736Z,37.95
2022-08-04T10:23:56.286Z,38.03
2022-08-04T10:26:47.157Z,38.09
2022-08-04T10:29:20.114Z,38.10
2022-08-04T10:32:14.761Z,38.17
2022-08-04T10:35:15.870Z,38.33
2022-08-04T10:38:13.457Z,38.45
2022-08-04T10:40:46.943Z,38.49
2022-08-04T10:43:59.322Z,38.49
2022-08-04T10:46:44.500Z,38.49
2022-08-04T10:49:40.948Z,38.53
2022-08-04T10:52:21.147Z,38.55
2022-08-04T10:54:58.468Z,38.54
2022-08-04T10:57:57.949Z,38.48
2022-08-04T11:00:28.700Z,38.39
2022-08-04T11:03:23.304Z,38.37
2022-08-04T11:05:59.238Z,38.40
2022-08-04T11:08:35.947Z,38.39
2022-08-04T11:11:15.794Z,38.33
2022-08-04T11:13:57.242Z,38.27
2022-08-04T11:16:30.427Z,38.25
2022-08-04T11:19:44.680Z,38.25
2022-08-04T11:22:26.069Z,38.24
2022-08-04T11:25:15.256Z,38.27
2022-08-04T11:28:01.980Z,38.23
2022-08-04T11:30:45.792Z,38.12
2022-08-04T11:33:54.524Z,37.97
2022-08-04T11:37:00.676Z,37.80
2022-08-04T11:39:35.911Z,37.72
2022-08-04T11:42:34.827Z,37.68
2022-08-04T11:45:07.178Z,37.64
2022-08-04T11:48:11.757Z,37.61
2022-08-04T11:50:46.078Z,37.59
2022-08-04T11:53:21.179Z,37.64
2022-08-04T11:56:07.749Z,37.66
2022-08-04T11:58:38.225Z,37.64
2022-08-04T12:01:13.491Z,37.59
2022-08-04T12:04:14.627Z,37.55
2022-08-04T12:07:15.166Z,37.49
2022-08-04T12:10:38.006Z,37.35
2022-08-04T12:13:38.509Z,37.17
2022-08-04T12:16:30.879Z,37.03
2022-08-04T12:19:03.321Z,36.93
2022-08-04T12:21:43.554Z,36.89
2022-08-04T12:24:36.972Z,36.85
2022-08-04T12:27:30.859Z,36.70
2022-08-04T12:30:58.597Z,36.57
2022-08-04T12:33:00.596Z,36.50
2022-08-04T12:35:33.671Z,36.46
2022-08-04T12:38:14.556Z,36.43
2022-08-04T12:40:53.935Z,36.38
2022-08-04T12:43:44.422Z,36.36
2022-08-04T12:46:28.188Z,36.34
2022-08-04T12:49:02.345Z,36.32
2022-08-04T12:52:08.510Z,36.25
2022-08-04T12:54:37.697Z,36.21
2022-08-04T12:57:07.508Z,36.15
2022-08-04T12:59:45.309Z,36.01
2022-08-04T13:02:31.105Z,35.83
2022-08-04T13:05:02.091Z,35.72
2022-08-04T13:07:46.883Z,35.60
2022-08-04T13:10:18.441Z,35.50
2022-08-04T13:13:01.777Z,35.39
2022-08-04T13:15:31.015Z,35.30
2022-08-04T13:18:14.861Z,35.25
2022-08-04T13:20:44.001Z,35.21
2022-08-04T13:23:20.206Z,35.18
2022-08-04T13:26:42.869Z,35.17
2022-08-04T13:28:47.103Z,35.16
2022-08-04T13:31:35.608Z,35.15
2022-08-04T13:34:08.556Z,35.16
2022-08-04T13:36:48.548Z,35.12
2022-08-04T13:39:20.717Z,35.10
2022-08-04T13:41:57.936Z,35.09
2022-08-04T13:44:34.953Z,35.08
2022-08-04T13:47:14.828Z,35.10
2022-08-04T13:50:01.194Z,35.10
2022-08-04T13:52:33.229Z,35.09
2022-08-04T13:55:01.788Z,35.07
2022-08-04T13:57:34.017Z,35.04
2022-08-04T14:00:08.086Z,34.96
2022-08-04T14:02:49.094Z,34.86
2022-08-04T14:05:27.478Z,34.78
2022-08-04T14:08:15.615Z,34.69
2022-08-04T14:10:46.035Z,34.64
2022-08-04T14:13:14.009Z,34.58
2022-08-04T14:16:01.680Z,34.52
2022-08-04T14:18:33.135Z,34.44
2022-08-04T14:21:06.611Z,34.38
2022-08-04T14:23:51.652Z,34.30
2022-08-04T14:26:35.798Z,34.20
2022-08-04T14:29:28.557Z,34.12
2022-08-04T14:32:12.660Z,34.06
2022-08-04T14:34:53.470Z,34.00
2022-08-04T14:37:23.122Z,33.97
2022-08-04T14:40:19.364Z,33.94
2022-08-04T14:42:54.272Z,33.88
2022-08-04T14:45:54.080Z,33.82
2022-08-04T14:48:22.828Z,33.75
2022-08-04T14:50:52.698Z,33.69
2022-08-04T14:53:26.620Z,33.64
2022-08-04T14:55:58.465Z,33.58
2022-08-04T14:58:39.067Z,33.54
2022-08-04T15:01:12.201Z,33.51
2022-08-04T15:03:50.617Z,33.50
2022-08-04T15:06:26.283Z,33.48
2022-08-04T15:08:57.956Z,33.48
2022-08-04T15:11:26.192Z,33.46
2022-08-04T15:13:55.803Z,33.46
2022-08-04T15:16:27.162Z,33.43
2022-08-04T15:18:56.999Z,33.39
2022-08-04T15:21:29.052Z,33.36
2022-08-04T15:23:58.433Z,33.34
2022-08-04T15:26:38.539Z,33.32
2022-08-04T15:29:20.930Z,33.31
2022-08-04T15:32:08.225Z,33.31
2022-08-04T15:34:52.184Z,33.31
2022-08-04T15:37:40.348Z,33.29
2022-08-04T15:40:38.802Z,33.26
2022-08-04T15:43:47.323Z,33.25
2022-08-04T15:46:44.814Z,33.24
2022-08-04T15:49:35.711Z,33.23
2022-08-04T15:52:12.270Z,33.22
2022-08-04T15:55:32.391Z,33.20
2022-08-04T15:58:05.953Z,33.17
2022-08-04T16:00:49.512Z,33.14
2022-08-04T16:03:58.048Z,33.13
2022-08-04T16:06:23.923Z,33.12
2022-08-04T16:09:03.281Z,33.08
2022-08-04T16:11:33.076Z,33.04
2022-08-04T16:14:01.678Z,33.01
2022-08-04T16:16:31.935Z,32.97
2022-08-04T16:19:16.685Z,32.93
2022-08-04T16:21:57.069Z,32.90
2022-08-04T16:24:30.776Z,32.86
2022-08-04T16:27:03.925Z,32.83
2022-08-04T16:29:40.773Z,32.80
2022-08-04T16:32:16.218Z,32.77
2022-08-04T16:34:54.426Z,32.73
2022-08-04T16:37:30.940Z,32.70
2022-08-04T16:40:39.225Z,32.65
2022-08-04T16:43:10.241Z,32.59
2022-08-04T16:46:18.405Z,32.55
2022-08-04T16:49:06.464Z,32.52
2022-08-04T16:51:34.731Z,32.47
2022-08-04T16:54:05.538Z,32.45
2022-08-04T16:56:35.662Z,32.41
2022-08-04T16:59:12.455Z,32.38
2022-08-04T17:01:48.393Z,32.34
2022-08-04T17:04:16.854Z,32.30
2022-08-04T17:06:49.424Z,32.26
2022-08-04T17:09:19.724Z,32.23
2022-08-04T17:11:48.545Z,32.19
2022-08-04T17:14:31.414Z,32.16
2022-08-04T17:17:04.456Z,32.13
2022-08-04T17:19:39.714Z,32.08
2022-08-04T17:22:10.499Z,32.04
2022-08-04T17:24:41.087Z,32.00
2022-08-04T17:28:20.487Z,31.96
2022-08-04T17:29:59.944Z,31.90
2022-08-04T17:32:28.060Z,31.83
2022-08-04T17:37:52.280Z,31.65
2022-08-04T17:40:25.733Z,31.58
2022-08-04T17:44:00.983Z,31.49
2022-08-04T17:46:29.073Z,31.41
2022-08-04T17:49:19.252Z,31.32
2022-08-04T17:52:06.531Z,31.22
2022-08-04T17:54:40.499Z,31.12
2022-08-04T17:57:23.551Z,31.04
2022-08-04T17:59:59.133Z,30.96
2022-08-04T18:02:32.977Z,30.88
2022-08-04T18:05:11.703Z,30.80
2022-08-04T18:08:39.048Z,30.73
2022-08-04T18:10:54.614Z,30.65
2022-08-04T18:13:26.412Z,30.57
2022-08-04T18:16:05.415Z,30.51
2022-08-04T18:18:33.703Z,30.44
2022-08-04T18:21:02.918Z,30.39
2022-08-04T18:23:33.646Z,30.32
2022-08-04T18:26:03.825Z,30.26
2022-08-04T18:28:33.447Z,30.18
2022-08-04T18:31:02.339Z,30.10
2022-08-04T18:33:40.841Z,30.03
2022-08-04T18:36:33.229Z,29.94
2022-08-04T18:42:00.961Z,29.77
2022-08-04T18:44:49.302Z,29.70
2022-08-04T18:47:29.872Z,29.64
2022-08-04T18:50:59.139Z,29.56
2022-08-04T18:52:59.260Z,29.49
2022-08-04T18:55:57.100Z,29.42
2022-08-04T18:58:26.746Z,29.35
2022-08-04T19:01:00.403Z,29.29
2022-08-04T19:03:53.944Z,29.24
2022-08-04T19:06:32.418Z,29.17
2022-08-04T19:09:00.777Z,29.13
2022-08-04T19:11:54.022Z,29.08
2022-08-04T19:14:18.018Z,29.02
2022-08-04T19:16:48.626Z,28.97
2022-08-04T19:19:18.351Z,28.93
2022-08-04T19:22:00.801Z,28.87
2022-08-04T19:24:34.463Z,28.81
2022-08-04T19:27:07.516Z,28.76
2022-08-04T19:29:40.608Z,28.70
2022-08-04T19:32:13.883Z,28.64
2022-08-04T19:34:51.851Z,28.59
2022-08-04T19:37:57.557Z,28.54
2022-08-04T19:40:10.179Z,28.47
2022-08-04T19:42:42.696Z,28.42
2022-08-04T19:45:15.779Z,28.35
2022-08-04T19:48:22.162Z,28.29
2022-08-04T19:50:34.489Z,28.22
2022-08-04T19:53:18.676Z,28.16
2022-08-04T19:55:50.372Z,28.09
2022-08-04T19:58:26.079Z,28.02
2022-08-04T20:01:31.563Z,27.96
2022-08-04T20:04:10.185Z,27.86
2022-08-04T20:06:56.388Z,27.78
2022-08-04T20:09:27.220Z,27.69
2022-08-04T20:11:57.800Z,27.61
2022-08-04T20:14:52.232Z,27.53
2022-08-04T20:18:35.048Z,27.44
2022-08-04T20:20:15.637Z,27.36
2022-08-04T20:22:46.248Z,27.28
2022-08-04T20:25:36.629Z,27.19
2022-08-04T20:28:07.402Z,27.11
2022-08-04T20:30:36.378Z,27.03
2022-08-04T20:33:09.687Z,26.96
2022-08-04T20:36:00.852Z,26.89
2022-08-04T20:38:33.645Z,26.81
2022-08-04T20:41:02.948Z,26.75
2022-08-04T20:43:31.361Z,26.69
2022-08-04T20:45:59.876Z,26.64
2022-08-04T20:48:33.494Z,26.58
2022-08-04T20:51:01.822Z,26.52
2022-08-04T20:53:32.477Z,26.48
2022-08-04T20:56:19.089Z,26.42
2022-08-04T20:59:01.185Z,26.37
2022-08-04T21:01:35.710Z,26.32
2022-08-04T21:04:28.011Z,26.29
2022-08-04T21:06:58.238Z,26.25
2022-08-04T21:09:38.041Z,26.21
2022-08-04T21:12:26.739Z,26.18
2022-08-04T21:15:00.579Z,26.13
2022-08-04T21:17:57.455Z,26.10
2022-08-04T21:20:27.494Z,26.07
2022-08-04T21:25:49.929Z,26.00
2022-08-04T21:28:20.354Z,25.98
2022-08-04T21:30:54.650Z,25.94
2022-08-04T21:33:28.185Z,25.92
2022-08-04T21:36:14.403Z,25.89
2022-08-04T21:38:51.621Z,25.86
2022-08-04T21:41:24.713Z,25.84
2022-08-04T21:43:55.878Z,25.81
2022-08-04T21:46:24.041Z,25.80
2022-08-04T21:48:52.022Z,25.77
2022-08-04T21:52:00.219Z,25.75
2022-08-04T21:54:14.924Z,25.73
2022-08-04T21:56:50.813Z,25.70
2022-08-04T21:59:23.799Z,25.69
2022-08-04T22:02:01.394Z,25.66
2022-08-04T22:04:30.368Z,25.64
2022-08-04T22:07:02.879Z,25.62
2022-08-04T22:09:38.450Z,25.60
2022-08-04T22:12:12.046Z,25.57
2022-08-04T22:14:40.706Z,25.56
2022-08-04T22:17:13.720Z,25.54
2022-08-04T22:19:54.783Z,25.51
2022-08-04T22:22:29.037Z,25.48
2022-08-04T22:25:06.171Z,25.45
2022-08-04T22:28:00.976Z,25.43
2022-08-04T22:30:37.576Z,25.40
2022-08-04T22:33:08.773Z,25.37
2022-08-04T22:35:48.896Z,25.34
2022-08-04T22:38:28.982Z,25.32
2022-08-04T22:41:11.840Z,25.29
2022-08-04T22:43:40.987Z,25.26
2022-08-04T22:46:27.607Z,25.23
2022-08-04T22:48:55.561Z,25.20
2022-08-04T22:51:27.075Z,25.17
2022-08-04T22:53:55.221Z,25.14
2022-08-04T22:56:38.464Z,25.11
2022-08-04T22:59:10.947Z,25.08
2022-08-04T23:02:00.635Z,25.06
2022-08-04T23:04:34.633Z,25.02
2022-08-04T23:07:08.902Z,25.00
2022-08-04T23:09:49.363Z,24.96
2022-08-04T23:12:27.955Z,24.93
2022-08-04T23:14:57.978Z,24.91
2022-08-04T23:17:28.516Z,24.88
2022-08-04T23:19:59.208Z,24.85
2022-08-04T23:22:41.941Z,24.82
2022-08-04T23:25:15.080Z,24.79
2022-08-04T23:27:50.665Z,24.76
2022-08-04T23:30:24.967Z,24.72
2022-08-04T23:32:58.617Z,24.68
2022-08-04T23:35:26.674Z,24.65
2022-08-04T23:37:57.361Z,24.62
2022-08-04T23:40:33.988Z,24.59
2022-08-04T23:43:17.094Z,24.56
2022-08-04T23:46:07.092Z,24.54
2022-08-04T23:48:39.354Z,24.51
2022-08-04T23:51:14.000Z,24.48
2022-08-04T23:54:03.988Z,24.46
2022-08-04T23:56:35.701Z,24.43
2022-08-04T23:59:06.151Z,24.40
